Flight Track Log - Related Links

Times and Time Zones

All times are in EDT time to prevent confusion due to time zone crossing. See the DAL1515 flight status page for this flight to view local times or setup timezone preferences in your user account.

Time Position Orientation Groundspeed Altitude Reporting Facility
EDT Latitude Longitude Course Direction KTS MPH feet Rate Location/Type
Sat 09:17:00 PM 41.0062 -76.1532 39° Northeast  Level Estimated
Sat 09:18:00 PM 41.0178 -76.1382 44° Northeast  Level Estimated
Sat 09:19:00 PM 41.0740 -76.0653 44° Northeast  Level Estimated
Sat 09:20:00 PM 41.1302 -75.9922 44° Northeast  Level Estimated
Sat 09:21:00 PM 41.1863 -75.9190 44° Northeast  Level Estimated
Sat 09:22:00 PM 41.2424 -75.8457 45° Northeast  Level Estimated
Sat 09:23:00 PM 41.2984 -75.7723 45° Northeast  Level Estimated
Sat 09:24:00 PM 41.3543 -75.6987 45° Northeast  Level Estimated
Sat 09:25:00 PM 41.4103 -75.6251 45° Northeast  Level Estimated
Sat 09:26:00 PM 41.4661 -75.5512 45° Northeast  Level Estimated
Sat 09:27:00 PM 41.5220 -75.4773 45° Northeast  Level Estimated
Sat 09:28:00 PM 41.5778 -75.4032 45° Northeast  Level Estimated
Sat 09:29:00 PM 41.6335 -75.3290 45° Northeast  Level Estimated
Sat 09:30:00 PM 41.6892 -75.2547 45° Northeast  Level Estimated
Sat 09:31:00 PM 41.7448 -75.1803 45° Northeast  Level Estimated
Sat 09:32:00 PM 41.8004 -75.1057 45° Northeast  Level Estimated
Sat 09:33:00 PM 41.8560 -75.0310 45° Northeast  Level Estimated
Sat 09:34:00 PM 41.9115 -74.9561 45° Northeast  Level Estimated
Sat 09:35:00 PM 41.9669 -74.8811 45° Northeast  Level Estimated
Sat 09:36:00 PM 42.0223 -74.8061 45° Northeast  Level Estimated
Sat 09:37:00 PM 42.0777 -74.7308 45° Northeast  Level Estimated
Sat 09:38:00 PM 42.1330 -74.6554 45° Northeast  Level Estimated
Sat 09:39:00 PM 42.1882 -74.5799 45° Northeast  Level Estimated
Sat 09:40:00 PM 42.2434 -74.5043 45° Northeast  Level Estimated
Sat 09:41:00 PM 42.2986 -74.4286 45° Northeast  Level Estimated
Sat 09:42:00 PM 42.3537 -74.3527 45° Northeast  Level Estimated
Sat 09:43:00 PM 42.4087 -74.2766 46° Northeast  Level Estimated
Sat 09:44:00 PM 42.4637 -74.2005 46° Northeast  Level Estimated
Sat 09:45:00 PM 42.5187 -74.1242 46° Northeast  Level Estimated
Sat 09:46:00 PM 42.5736 -74.0478 46° Northeast  Level Estimated
Sat 09:47:00 PM 42.6284 -73.9712 46° Northeast  Level Estimated
Sat 09:48:00 PM 42.6832 -73.8945 46° Northeast  Level Estimated
Sat 09:49:00 PM 42.7380 -73.8176 46° Northeast  Level Estimated
Sat 09:50:00 PM 42.7491 -73.8020 46° Northeast  Level Estimated
Sat 09:51:00 PM 42.7491 -73.8020 304° West  Level Estimated
Sat 09:52:00 PM 42.7491 -73.8020 304° West  Level Estimated
Sat 09:53:00 PM 42.7491 -73.8020 304° West  Level Estimated
Sat 09:54:00 PM 42.7491 -73.8020 304° West  Level Estimated
Sat 09:55:00 PM 42.7491 -73.8020 304° West  Level Estimated
Sat 09:56:00 PM 42.7491 -73.8020 304° West  Level Estimated
Sat 09:57:00 PM 42.7491 -73.8020 304° West  Level Estimated
Sat 09:58:00 PM 42.7491 -73.8020 304° West  Level Estimated
Sat 09:59:00 PM 42.7491 -73.8020 304° West  Level Estimated
Sat 10:00:00 PM 42.7491 -73.8020 304° West  Level Estimated
Sat 10:01:00 PM 42.7491 -73.8020 304° West  Level Estimated
Sat 10:02:00 PM 42.7491 -73.8020 304° West  Level Estimated
Sat 10:03:00 PM 42.7491 -73.8020 304° West  Level Estimated
Sat 10:04:00 PM 42.7491 -73.8020 304° West  Level Estimated
Sat 10:05:00 PM 42.7491 -73.8020 304° West  Level Estimated
Sat 10:06:00 PM 42.7491 -73.8020 304° West  Level Estimated
Sat 10:07:00 PM 42.7491 -73.8020 304° West  Level Estimated
Sat 10:08:00 PM 42.7491 -73.8020 304° West  Level Estimated
Sat 10:09:00 PM 42.7491 -73.8020 304° West  Level Estimated
Sat 10:10:00 PM 42.7491 -73.8020 304° West  Level Estimated
Sat 10:11:00 PM 42.7491 -73.8020 304° West  Level Estimated
Sat 10:12:00 PM 42.7491 -73.8020 304° West  Level Estimated
Sat 10:13:00 PM 42.7491 -73.8020 304° West  Level Estimated
Sat 10:14:00 PM 42.7491 -73.8020 304° West  Level Estimated
Sat 10:15:00 PM 42.7491 -73.8020 304° West  Level Estimated
Sat 10:16:00 PM 42.7491 -73.8020 304° West  Level Estimated
Sat 10:17:00 PM 42.7491 -73.8020 304° West  Level Estimated
Sat 10:18:00 PM 42.7491 -73.8020 304° West  Level Estimated
Sat 10:19:00 PM 42.7491 -73.8020 304° West  Level Estimated
Sat 10:20:00 PM 42.7491 -73.8020 304° West  Level Estimated
Sat 10:21:00 PM 42.7491 -73.8020 304° West  Level Estimated
Sat 10:22:00 PM 42.7491 -73.8020 304° West  Level Estimated
Sat 10:23:00 PM 42.7491 -73.8020 304° West  Level Estimated
Sat 10:24:00 PM 42.7491 -73.8020 304° West  Level Estimated
Sat 10:25:00 PM 42.7491 -73.8020 304° West  Level Estimated
Sat 10:26:00 PM 42.7491 -73.8020 304° West  Level Estimated
Sat 10:27:00 PM 42.7491 -73.8020 304° West  Level Estimated
Sat 10:28:00 PM 42.7491 -73.8020 304° West  Level Estimated
Sat 10:29:00 PM 42.7491 -73.8020 304° West  Level Estimated
Sat 10:30:00 PM 42.7491 -73.8020 304° West  Level Estimated
Sat 10:31:00 PM 42.7491 -73.8020 304° West  Level Estimated
Sat 10:32:00 PM 42.7491 -73.8020 304° West  Level Estimated
Sat 10:33:00 PM 42.7491 -73.8020 304° West  Level Estimated
Sat 10:34:00 PM 42.7491 -73.8020 304° West  Level Estimated
Sat 10:35:00 PM 42.7491 -73.8020 304° West  Level Estimated
Sat 10:36:00 PM 42.7491 -73.8020 304° West  Level Estimated
Sat 10:37:00 PM 42.7491 -73.8020 304° West  Level Estimated
Sat 10:38:00 PM 42.7491 -73.8020 304° West  Level Estimated
Sat 10:39:00 PM 42.7491 -73.8020 304° West  Level Estimated
Sat 10:40:00 PM 42.7491 -73.8020 304° West  Level Estimated
Sat 10:41:00 PM 42.7491 -73.8020 304° West  Level Estimated
Sat 10:42:00 PM 42.7491 -73.8020 304° West  Level Estimated
Sat 10:43:00 PM 42.7491 -73.8020 304° West  Level Estimated
Sat 10:44:00 PM 42.7491 -73.8020 304° West  Level Estimated
Sat 10:45:00 PM 42.7491 -73.8020 304° West  Level Estimated
Sat 10:46:00 PM 42.7491 -73.8020 304° West  Level Estimated
Sat 10:47:00 PM 42.7491 -73.8020 304° West  Level Estimated
Sat 10:48:00 PM 42.7491 -73.8020 304° West  Level Estimated
Sat 10:49:00 PM 42.7491 -73.8020 304° West  Level Estimated
Sat 10:50:00 PM 42.7491 -73.8020 304° West  Level Estimated
Sat 10:51:00 PM 42.7491 -73.8020 304° West  Level Estimated
Sat 10:52:00 PM 42.7491 -73.8020 304° West  Level Estimated
Sat 10:53:00 PM 42.7491 -73.8020 304° West  Level Estimated
Sat 10:54:00 PM 42.7491 -73.8020 304° West  Level Estimated
Sat 10:55:00 PM 42.7491 -73.8020 304° West  Level Estimated
Sat 10:56:00 PM 42.7491 -73.8020 304° West  Level Estimated
Sat 10:57:00 PM 42.7491 -73.8020 304° West  Level Estimated
Sat 10:58:00 PM 42.7491 -73.8020 304° West  Level Estimated
Sat 10:59:00 PM 42.7491 -73.8020 304° West  Level Estimated
Sat 11:00:00 PM 42.7491 -73.8020 304° West  Level Estimated
Sat 11:01:00 PM 42.7491 -73.8020 304° West  Level Estimated
Sat 11:02:00 PM 42.7491 -73.8020 304° West  Level Estimated
Sat 11:03:00 PM 42.7491 -73.8020 304° West  Level Estimated
Sat 11:04:00 PM 42.7491 -73.8020 304° West  Level Estimated
Sat 11:05:00 PM 42.7491 -73.8020 304° West  Level Estimated
Sat 11:06:00 PM 42.7491 -73.8020 304° West  Level Estimated
Sat 11:07:00 PM 42.7491 -73.8020 304° West  Level Estimated
Sat 11:08:00 PM 42.7491 -73.8020 304° West  Level Estimated
Sat 11:09:00 PM 42.7491 -73.8020 304° West  Level Estimated
Sat 11:10:00 PM 42.7491 -73.8020 304° West  Level Estimated
Sat 11:11:00 PM 42.7491 -73.8020 304° West  Level Estimated
Sat 11:12:00 PM 42.7491 -73.8020 304° West  Level Estimated
Sat 11:13:00 PM 42.7491 -73.8020 304° West  Level Estimated
Sat 11:14:00 PM 42.7491 -73.8020 304° West  Level Estimated
Sat 11:15:00 PM 42.7491 -73.8020 304° West  Level Estimated
Sat 11:16:00 PM 42.7491 -73.8020 304° West  Level Estimated
Sat 11:17:00 PM 42.7491 -73.8020 304° West  Level Estimated
Sat 11:18:00 PM 42.7491 -73.8020 304° West  Level Estimated
Sat 11:19:00 PM 42.7491 -73.8020 304° West  Level Estimated
Sat 11:20:00 PM 42.7491 -73.8020 304° West  Level Estimated
Sat 11:21:00 PM 42.7491 -73.8020 304° West  Level Estimated
Sat 11:22:00 PM 42.7491 -73.8020 304° West  Level Estimated
Sat 11:23:00 PM 42.7491 -73.8020 304° West  Level Estimated
Sat 11:24:00 PM 42.7491 -73.8020 304° West  Level Estimated
Sat 11:25:00 PM 42.7491 -73.8020 304° West  Level Estimated
Sat 11:26:00 PM 42.7491 -73.8020 304° West  Level Estimated
Sat 11:27:00 PM 42.7491 -73.8020 304° West  Level Estimated
Sat 11:28:00 PM 42.7491 -73.8020 304° West  Level Estimated
Sat 11:29:00 PM 42.7491 -73.8020 304° West  Level Estimated
Sat 11:30:00 PM 42.7491 -73.8020 304° West  Level Estimated
Sat 11:31:00 PM 42.7491 -73.8020 304° West  Level Estimated
Sat 11:32:00 PM 42.7491 -73.8020 304° West  Level Estimated
Sat 11:33:00 PM 42.7491 -73.8020 304° West  Level Estimated
Sat 11:34:00 PM 42.7491 -73.8020 304° West  Level Estimated
Sat 11:35:00 PM 42.7491 -73.8020 304° West  Level Estimated
Sat 11:36:00 PM 42.7491 -73.8020 304° West  Level Estimated
Sat 11:37:00 PM 42.7491 -73.8020 304° West  Level Estimated
Sat 11:38:00 PM 42.7491 -73.8020 304° West  Level Estimated
Sat 11:39:00 PM 42.7491 -73.8020 304° West  Level Estimated
Sat 11:40:00 PM 42.7491 -73.8020 304° West  Level Estimated
Sat 11:41:00 PM 42.7491 -73.8020 304° West  Level Estimated
Sat 11:42:00 PM 42.7491 -73.8020 304° West  Level Estimated
Sat 11:43:00 PM 42.7491 -73.8020 304° West  Level Estimated
Sat 11:44:00 PM 42.7491 -73.8020 304° West  Level Estimated
Sat 11:45:00 PM 42.7491 -73.8020 304° West  Level Estimated
Sat 11:46:00 PM 42.7491 -73.8020 304° West  Level Estimated
Sat 11:47:00 PM 42.7491 -73.8020 304° West  Level Estimated
Sat 11:48:00 PM 42.7491 -73.8020 304° West  Level Estimated
Sat 11:49:00 PM 42.7491 -73.8020 304° West  Level Estimated
Sat 11:50:00 PM 42.7491 -73.8020 304° West  Level Estimated
Sat 11:51:00 PM 42.7491 -73.8020 304° West  Level Estimated
Sat 11:52:00 PM 42.7491 -73.8020 304° West  Level Estimated
Sat 11:53:00 PM 42.7491 -73.8020 304° West  Level Estimated
Sat 11:54:00 PM 42.7491 -73.8020 304° West  Level Estimated
Sat 11:55:00 PM 42.7491 -73.8020 304° West  Level Estimated
Sat 11:56:00 PM 42.7491 -73.8020 304° West  Level Estimated
Sat 11:57:00 PM 42.7491 -73.8020 304° West  Level Estimated
Sat 11:58:00 PM 42.7491 -73.8020 304° West  Level Estimated
Sat 11:59:00 PM 42.7491 -73.8020 304° West  Level Estimated
Sun 12:00:00 AM 42.7491 -73.8020 304° West  Level Estimated
Sun 12:01:00 AM 42.7491 -73.8020 304° West  Level Estimated
Sun 12:02:00 AM 42.7491 -73.8020 304° West  Level Estimated
Sun 12:03:00 AM 42.7491 -73.8020 304° West  Level Estimated
Sun 12:04:00 AM 42.7491 -73.8020 304° West  Level Estimated
Sun 12:05:00 AM 42.7491 -73.8020 304° West  Level Estimated
Sun 12:06:00 AM 42.7491 -73.8020 304° West  Level Estimated

Login

Don't have an account? Register now (free) for customized features, flight alerts, and more!